Portada
METAR-TAF:

METAR-TAF

Aeropuertos :

Aeropuerto Internacional de Dakar-Yoff/Léopold Sédar Senghor

Dakar, Senegal

latitud: 14-44N, longitud: 017-30W, altitud: 27 m

Observación

El informe se hizo hace 3 horas y 17 minutos, a las 03:00 UTC
Viento 14 kt del norte
Temperatura 20°C
Humedad 60%
Presión 1016 hPa
Visibilidad: 8000 m

METAR: GOOY 190300Z 36014KT 8000 NSC 20/12 Q1016

Hora: 06:17 (06:17 UTC)

Pronóstico

El informe se hizo hace 47 minutos, a las 05:30 UTC
Pronóstico válido del 19 a las 06 UTC al 20 a las 12 UTC
Viento 15 kt del norte
Visibilidad: 8000 m

TAF: GOOY 190530Z 1906/2012 36015KT 8000 NSC

Observaciones y pronósticos meteorológicos de más de 4000 aeropuertos (mensajes METAR y TAF).

Los puntos amarillos y rojos representan las estaciones disponibles.

Ponga el ratón en el punto deseado para ver el nombre de la estación.

Haga clic para ver las observaciones y los pronósticos meteorológicos.

Para cambiar el mapa : haga clic en los botones verdes con una cruz de color negro para hacer un zoom, en el botón verde con un guión para alejar o en las flechas verdes para mapas adyacentes.


METAR-TAF: